EFKS

Kuusamo Airport

Kuusamo, Finland
METAR EFKS 231450Z AUTO 34007KT 280V020 CAVOK 11/M04 Q1023
Observed Flight Rules
May-23 @ 14:50 UTC (12 minutes ago) Visual Flight Rules
Wind Visibility Clouds
340° at 7 knots 10,000+ meters
  • Clear skies
Temperatures Readings
Current 11°C / 52°F
Dewpoint -4°C / 25°F
Humidity 35%
Altimeter 30.21" Hg
Pressure 1023 hPa
Elevation 263
METAR EFKS 231450Z AUTO 34007KT 280V020 CAVOK 11/M04 Q1023
Observed Flight Rules
May-23 @ 14:50 UTC
(12 minutes ago)
VFR
Wind Visibility
340° at 7 knots 10,000+ meters
Clouds
  • Clear skies
Temperature Dewpoint
11°C / 52°F -4°C / 25°F
Humidity Altimeter Pressure
35% 30.21" Hg 1023 hPa